sensor_id;sensor_type;location;lat;lon;timestamp;P1;durP1;ratioP1;P2;durP2;ratioP2
16689;SDS011;8458;52.220;9.884;2023-04-24T00:01:07;0.90;;;0.40;;
16689;SDS011;8458;52.220;9.884;2023-04-24T00:03:34;0.40;;;0.40;;
16689;SDS011;8458;52.220;9.884;2023-04-24T00:06:00;0.73;;;0.40;;
16689;SDS011;8458;52.220;9.884;2023-04-24T00:08:27;0.50;;;0.50;;
16689;SDS011;8458;52.220;9.884;2023-04-24T00:10:54;0.40;;;0.40;;
16689;SDS011;8458;52.220;9.884;2023-04-24T00:13:20;0.40;;;0.40;;
16689;SDS011;8458;52.220;9.884;2023-04-24T00:15:48;0.57;;;0.40;;
16689;SDS011;8458;52.220;9.884;2023-04-24T00:18:14;0.40;;;0.40;;
16689;SDS011;8458;52.220;9.884;2023-04-24T00:20:41;0.43;;;0.30;;
16689;SDS011;8458;52.220;9.884;2023-04-24T00:23:08;0.43;;;0.43;;
16689;SDS011;8458;52.220;9.884;2023-04-24T00:25:35;1.20;;;0.40;;
16689;SDS011;8458;52.220;9.884;2023-04-24T00:28:01;0.83;;;0.50;;
16689;SDS011;8458;52.220;9.884;2023-04-24T00:30:27;0.40;;;0.40;;
16689;SDS011;8458;52.220;9.884;2023-04-24T00:32:56;0.67;;;0.50;;
16689;SDS011;8458;52.220;9.884;2023-04-24T00:35:23;0.50;;;0.50;;
16689;SDS011;8458;52.220;9.884;2023-04-24T00:37:49;0.87;;;0.60;;
16689;SDS011;8458;52.220;9.884;2023-04-24T00:40:16;1.03;;;0.50;;
16689;SDS011;8458;52.220;9.884;2023-04-24T00:42:43;0.60;;;0.60;;
16689;SDS011;8458;52.220;9.884;2023-04-24T00:45:10;0.50;;;0.50;;
16689;SDS011;8458;52.220;9.884;2023-04-24T00:47:36;0.67;;;0.60;;
16689;SDS011;8458;52.220;9.884;2023-04-24T00:50:05;0.50;;;0.50;;
16689;SDS011;8458;52.220;9.884;2023-04-24T00:52:33;0.47;;;0.47;;
16689;SDS011;8458;52.220;9.884;2023-04-24T00:54:59;0.70;;;0.60;;
16689;SDS011;8458;52.220;9.884;2023-04-24T00:57:26;2.73;;;0.63;;
16689;SDS011;8458;52.220;9.884;2023-04-24T00:59:53;0.60;;;0.60;;
16689;SDS011;8458;52.220;9.884;2023-04-24T01:02:20;0.67;;;0.50;;
16689;SDS011;8458;52.220;9.884;2023-04-24T01:04:49;0.70;;;0.57;;
16689;SDS011;8458;52.220;9.884;2023-04-24T01:07:18;0.50;;;0.50;;
16689;SDS011;8458;52.220;9.884;2023-04-24T01:09:46;0.53;;;0.53;;
16689;SDS011;8458;52.220;9.884;2023-04-24T01:12:15;0.50;;;0.50;;
16689;SDS011;8458;52.220;9.884;2023-04-24T01:14:42;0.63;;;0.63;;
16689;SDS011;8458;52.220;9.884;2023-04-24T01:17:09;0.77;;;0.50;;
16689;SDS011;8458;52.220;9.884;2023-04-24T01:19:35;0.90;;;0.57;;
16689;SDS011;8458;52.220;9.884;2023-04-24T01:22:03;0.77;;;0.60;;
16689;SDS011;8458;52.220;9.884;2023-04-24T01:24:31;0.80;;;0.57;;
16689;SDS011;8458;52.220;9.884;2023-04-24T01:26:58;0.50;;;0.50;;
16689;SDS011;8458;52.220;9.884;2023-04-24T01:29:26;0.57;;;0.50;;
16689;SDS011;8458;52.220;9.884;2023-04-24T01:31:53;0.60;;;0.60;;
16689;SDS011;8458;52.220;9.884;2023-04-24T01:34:20;0.80;;;0.70;;
16689;SDS011;8458;52.220;9.884;2023-04-24T01:36:47;0.50;;;0.50;;
16689;SDS011;8458;52.220;9.884;2023-04-24T01:39:15;0.63;;;0.60;;
16689;SDS011;8458;52.220;9.884;2023-04-24T01:41:42;0.50;;;0.50;;
16689;SDS011;8458;52.220;9.884;2023-04-24T01:44:09;0.50;;;0.50;;
16689;SDS011;8458;52.220;9.884;2023-04-24T01:46:36;0.60;;;0.60;;
16689;SDS011;8458;52.220;9.884;2023-04-24T01:49:02;0.87;;;0.60;;
16689;SDS011;8458;52.220;9.884;2023-04-24T01:51:29;0.63;;;0.50;;
16689;SDS011;8458;52.220;9.884;2023-04-24T01:53:56;0.60;;;0.60;;
16689;SDS011;8458;52.220;9.884;2023-04-24T01:56:23;0.60;;;0.60;;
16689;SDS011;8458;52.220;9.884;2023-04-24T01:58:51;0.60;;;0.60;;
16689;SDS011;8458;52.220;9.884;2023-04-24T02:01:20;0.70;;;0.70;;
16689;SDS011;8458;52.220;9.884;2023-04-24T02:03:46;0.70;;;0.50;;
16689;SDS011;8458;52.220;9.884;2023-04-24T02:06:13;2.00;;;0.60;;
16689;SDS011;8458;52.220;9.884;2023-04-24T02:08:39;1.33;;;0.63;;
16689;SDS011;8458;52.220;9.884;2023-04-24T02:11:06;0.60;;;0.60;;
16689;SDS011;8458;52.220;9.884;2023-04-24T02:13:34;0.67;;;0.67;;
16689;SDS011;8458;52.220;9.884;2023-04-24T02:16:02;0.60;;;0.60;;
16689;SDS011;8458;52.220;9.884;2023-04-24T02:18:29;0.73;;;0.60;;
16689;SDS011;8458;52.220;9.884;2023-04-24T02:20:55;0.63;;;0.60;;
16689;SDS011;8458;52.220;9.884;2023-04-24T02:25:49;0.50;;;0.50;;
16689;SDS011;8458;52.220;9.884;2023-04-24T02:28:15;0.50;;;0.50;;
16689;SDS011;8458;52.220;9.884;2023-04-24T02:30:42;0.60;;;0.40;;
16689;SDS011;8458;52.220;9.884;2023-04-24T02:33:10;0.30;;;0.30;;
16689;SDS011;8458;52.220;9.884;2023-04-24T02:35:38;0.30;;;0.30;;
16689;SDS011;8458;52.220;9.884;2023-04-24T02:38:04;0.70;;;0.43;;
16689;SDS011;8458;52.220;9.884;2023-04-24T02:40:31;0.50;;;0.40;;
16689;SDS011;8458;52.220;9.884;2023-04-24T02:42:58;0.47;;;0.47;;
16689;SDS011;8458;52.220;9.884;2023-04-24T02:45:24;0.67;;;0.40;;
16689;SDS011;8458;52.220;9.884;2023-04-24T02:47:51;0.60;;;0.30;;
16689;SDS011;8458;52.220;9.884;2023-04-24T02:50:19;0.60;;;0.30;;
16689;SDS011;8458;52.220;9.884;2023-04-24T02:52:45;1.53;;;0.50;;
16689;SDS011;8458;52.220;9.884;2023-04-24T02:55:12;0.50;;;0.30;;
16689;SDS011;8458;52.220;9.884;2023-04-24T02:57:39;0.67;;;0.40;;
16689;SDS011;8458;52.220;9.884;2023-04-24T03:00:06;0.37;;;0.37;;
16689;SDS011;8458;52.220;9.884;2023-04-24T03:02:34;1.13;;;0.40;;
16689;SDS011;8458;52.220;9.884;2023-04-24T03:05:00;0.50;;;0.50;;
16689;SDS011;8458;52.220;9.884;2023-04-24T03:07:28;0.40;;;0.40;;
16689;SDS011;8458;52.220;9.884;2023-04-24T03:09:56;0.50;;;0.30;;
16689;SDS011;8458;52.220;9.884;2023-04-24T03:12:23;0.50;;;0.50;;
16689;SDS011;8458;52.220;9.884;2023-04-24T03:14:49;1.07;;;0.40;;
16689;SDS011;8458;52.220;9.884;2023-04-24T03:17:16;0.30;;;0.30;;
16689;SDS011;8458;52.220;9.884;2023-04-24T03:19:42;0.47;;;0.33;;
16689;SDS011;8458;52.220;9.884;2023-04-24T03:22:08;0.60;;;0.40;;
16689;SDS011;8458;52.220;9.884;2023-04-24T03:24:37;0.33;;;0.33;;
16689;SDS011;8458;52.220;9.884;2023-04-24T03:27:04;0.47;;;0.47;;
16689;SDS011;8458;52.220;9.884;2023-04-24T03:29:30;0.40;;;0.40;;
16689;SDS011;8458;52.220;9.884;2023-04-24T03:31:56;0.37;;;0.37;;
16689;SDS011;8458;52.220;9.884;2023-04-24T03:34:23;1.13;;;0.40;;
16689;SDS011;8458;52.220;9.884;2023-04-24T03:36:49;0.40;;;0.40;;
16689;SDS011;8458;52.220;9.884;2023-04-24T03:39:17;0.30;;;0.30;;
16689;SDS011;8458;52.220;9.884;2023-04-24T03:41:45;0.40;;;0.33;;
16689;SDS011;8458;52.220;9.884;2023-04-24T03:44:11;0.33;;;0.33;;
16689;SDS011;8458;52.220;9.884;2023-04-24T03:46:38;0.37;;;0.37;;
16689;SDS011;8458;52.220;9.884;2023-04-24T03:49:04;1.13;;;0.30;;
16689;SDS011;8458;52.220;9.884;2023-04-24T03:51:31;0.30;;;0.30;;
16689;SDS011;8458;52.220;9.884;2023-04-24T03:53:57;0.30;;;0.30;;
16689;SDS011;8458;52.220;9.884;2023-04-24T03:56:23;1.50;;;0.30;;
16689;SDS011;8458;52.220;9.884;2023-04-24T03:58:51;0.43;;;0.30;;
16689;SDS011;8458;52.220;9.884;2023-04-24T04:01:18;0.30;;;0.30;;
16689;SDS011;8458;52.220;9.884;2023-04-24T04:03:45;0.63;;;0.30;;
16689;SDS011;8458;52.220;9.884;2023-04-24T04:06:12;0.40;;;0.40;;
16689;SDS011;8458;52.220;9.884;2023-04-24T04:08:38;0.43;;;0.30;;
16689;SDS011;8458;52.220;9.884;2023-04-24T04:11:05;0.57;;;0.20;;
16689;SDS011;8458;52.220;9.884;2023-04-24T04:13:31;0.30;;;0.30;;
16689;SDS011;8458;52.220;9.884;2023-04-24T04:15:59;0.40;;;0.30;;
16689;SDS011;8458;52.220;9.884;2023-04-24T04:18:26;0.30;;;0.30;;
16689;SDS011;8458;52.220;9.884;2023-04-24T04:20:52;0.30;;;0.30;;
16689;SDS011;8458;52.220;9.884;2023-04-24T04:23:19;0.40;;;0.30;;
16689;SDS011;8458;52.220;9.884;2023-04-24T04:25:45;0.53;;;0.20;;
16689;SDS011;8458;52.220;9.884;2023-04-24T04:28:12;0.37;;;0.30;;
16689;SDS011;8458;52.220;9.884;2023-04-24T04:30:40;0.20;;;0.20;;
16689;SDS011;8458;52.220;9.884;2023-04-24T04:33:08;0.37;;;0.30;;
16689;SDS011;8458;52.220;9.884;2023-04-24T04:35:35;0.67;;;0.20;;
16689;SDS011;8458;52.220;9.884;2023-04-24T04:38:02;0.60;;;0.30;;
16689;SDS011;8458;52.220;9.884;2023-04-24T04:40:29;0.40;;;0.30;;
16689;SDS011;8458;52.220;9.884;2023-04-24T04:42:56;0.93;;;0.30;;
16689;SDS011;8458;52.220;9.884;2023-04-24T04:45:23;0.50;;;0.33;;
16689;SDS011;8458;52.220;9.884;2023-04-24T04:47:52;0.60;;;0.47;;
16689;SDS011;8458;52.220;9.884;2023-04-24T04:50:21;0.27;;;0.27;;
16689;SDS011;8458;52.220;9.884;2023-04-24T04:52:47;0.20;;;0.20;;
16689;SDS011;8458;52.220;9.884;2023-04-24T04:55:14;0.30;;;0.30;;
16689;SDS011;8458;52.220;9.884;2023-04-24T04:57:40;1.00;;;0.30;;
16689;SDS011;8458;52.220;9.884;2023-04-24T05:00:07;0.63;;;0.40;;
16689;SDS011;8458;52.220;9.884;2023-04-24T05:02:36;0.27;;;0.27;;
16689;SDS011;8458;52.220;9.884;2023-04-24T05:05:03;0.40;;;0.23;;
16689;SDS011;8458;52.220;9.884;2023-04-24T05:07:32;0.30;;;0.30;;
16689;SDS011;8458;52.220;9.884;2023-04-24T05:09:58;0.20;;;0.20;;
16689;SDS011;8458;52.220;9.884;2023-04-24T05:12:24;0.33;;;0.30;;
16689;SDS011;8458;52.220;9.884;2023-04-24T05:14:51;0.40;;;0.30;;
16689;SDS011;8458;52.220;9.884;2023-04-24T05:17:18;0.70;;;0.30;;
16689;SDS011;8458;52.220;9.884;2023-04-24T05:19:44;1.33;;;0.33;;
16689;SDS011;8458;52.220;9.884;2023-04-24T05:22:11;0.53;;;0.40;;
16689;SDS011;8458;52.220;9.884;2023-04-24T05:24:39;0.30;;;0.30;;
16689;SDS011;8458;52.220;9.884;2023-04-24T05:27:05;0.47;;;0.30;;
16689;SDS011;8458;52.220;9.884;2023-04-24T05:29:32;1.13;;;0.30;;
16689;SDS011;8458;52.220;9.884;2023-04-24T05:31:59;0.20;;;0.20;;
16689;SDS011;8458;52.220;9.884;2023-04-24T05:34:26;0.30;;;0.30;;
16689;SDS011;8458;52.220;9.884;2023-04-24T05:36:52;0.43;;;0.30;;
16689;SDS011;8458;52.220;9.884;2023-04-24T05:39:19;0.33;;;0.33;;
16689;SDS011;8458;52.220;9.884;2023-04-24T05:41:48;1.37;;;0.30;;
16689;SDS011;8458;52.220;9.884;2023-04-24T05:44:14;1.13;;;0.60;;
16689;SDS011;8458;52.220;9.884;2023-04-24T05:46:40;0.30;;;0.30;;
16689;SDS011;8458;52.220;9.884;2023-04-24T05:49:07;0.30;;;0.30;;
16689;SDS011;8458;52.220;9.884;2023-04-24T05:51:33;0.40;;;0.30;;
16689;SDS011;8458;52.220;9.884;2023-04-24T05:54:00;0.30;;;0.30;;
16689;SDS011;8458;52.220;9.884;2023-04-24T05:56:28;0.30;;;0.30;;
16689;SDS011;8458;52.220;9.884;2023-04-24T05:58:56;0.30;;;0.20;;
16689;SDS011;8458;52.220;9.884;2023-04-24T06:01:22;0.27;;;0.27;;
16689;SDS011;8458;52.220;9.884;2023-04-24T06:03:50;0.50;;;0.23;;
16689;SDS011;8458;52.220;9.884;2023-04-24T06:06:17;0.30;;;0.30;;
16689;SDS011;8458;52.220;9.884;2023-04-24T06:08:44;0.40;;;0.30;;
16689;SDS011;8458;52.220;9.884;2023-04-24T06:11:11;0.63;;;0.30;;
16689;SDS011;8458;52.220;9.884;2023-04-24T06:13:37;0.67;;;0.40;;
16689;SDS011;8458;52.220;9.884;2023-04-24T06:16:05;0.30;;;0.30;;
16689;SDS011;8458;52.220;9.884;2023-04-24T06:18:32;0.40;;;0.20;;
16689;SDS011;8458;52.220;9.884;2023-04-24T06:20:58;0.60;;;0.30;;
16689;SDS011;8458;52.220;9.884;2023-04-24T06:23:25;0.30;;;0.30;;
16689;SDS011;8458;52.220;9.884;2023-04-24T06:25:51;0.87;;;0.50;;
16689;SDS011;8458;52.220;9.884;2023-04-24T06:28:18;0.60;;;0.47;;
16689;SDS011;8458;52.220;9.884;2023-04-24T06:30:44;0.43;;;0.30;;
16689;SDS011;8458;52.220;9.884;2023-04-24T06:33:12;0.40;;;0.40;;
16689;SDS011;8458;52.220;9.884;2023-04-24T06:35:39;0.70;;;0.53;;
16689;SDS011;8458;52.220;9.884;2023-04-24T06:38:05;1.00;;;0.53;;
16689;SDS011;8458;52.220;9.884;2023-04-24T06:40:32;0.90;;;0.50;;
16689;SDS011;8458;52.220;9.884;2023-04-24T06:42:58;0.70;;;0.63;;
16689;SDS011;8458;52.220;9.884;2023-04-24T06:45:27;0.50;;;0.50;;
16689;SDS011;8458;52.220;9.884;2023-04-24T06:47:54;0.60;;;0.60;;
16689;SDS011;8458;52.220;9.884;2023-04-24T06:50:22;0.50;;;0.50;;
16689;SDS011;8458;52.220;9.884;2023-04-24T06:52:48;1.00;;;0.60;;
16689;SDS011;8458;52.220;9.884;2023-04-24T06:55:15;0.60;;;0.60;;
16689;SDS011;8458;52.220;9.884;2023-04-24T06:57:42;0.80;;;0.67;;
16689;SDS011;8458;52.220;9.884;2023-04-24T07:00:09;0.67;;;0.60;;
16689;SDS011;8458;52.220;9.884;2023-04-24T07:02:36;0.93;;;0.70;;
16689;SDS011;8458;52.220;9.884;2023-04-24T07:05:03;0.73;;;0.70;;
16689;SDS011;8458;52.220;9.884;2023-04-24T07:07:31;0.80;;;0.80;;
16689;SDS011;8458;52.220;9.884;2023-04-24T07:09:58;0.80;;;0.80;;
16689;SDS011;8458;52.220;9.884;2023-04-24T07:12:24;1.43;;;0.93;;
16689;SDS011;8458;52.220;9.884;2023-04-24T07:14:51;0.80;;;0.80;;
16689;SDS011;8458;52.220;9.884;2023-04-24T07:17:17;1.47;;;0.90;;
16689;SDS011;8458;52.220;9.884;2023-04-24T07:19:44;1.83;;;1.10;;
16689;SDS011;8458;52.220;9.884;2023-04-24T07:22:10;2.30;;;1.40;;
16689;SDS011;8458;52.220;9.884;2023-04-24T07:24:43;1.97;;;1.87;;
16689;SDS011;8458;52.220;9.884;2023-04-24T07:27:09;2.80;;;2.70;;
16689;SDS011;8458;52.220;9.884;2023-04-24T07:29:36;3.20;;;3.10;;
16689;SDS011;8458;52.220;9.884;2023-04-24T07:32:03;3.17;;;3.07;;
16689;SDS011;8458;52.220;9.884;2023-04-24T07:34:29;3.20;;;3.10;;
16689;SDS011;8458;52.220;9.884;2023-04-24T07:36:56;3.30;;;3.10;;
16689;SDS011;8458;52.220;9.884;2023-04-24T07:39:22;3.67;;;3.47;;
16689;SDS011;8458;52.220;9.884;2023-04-24T07:41:52;3.40;;;3.20;;
16689;SDS011;8458;52.220;9.884;2023-04-24T07:44:19;3.37;;;3.17;;
16689;SDS011;8458;52.220;9.884;2023-04-24T07:46:48;3.30;;;3.10;;
16689;SDS011;8458;52.220;9.884;2023-04-24T07:49:15;2.57;;;2.43;;
16689;SDS011;8458;52.220;9.884;2023-04-24T07:51:41;3.40;;;3.20;;
16689;SDS011;8458;52.220;9.884;2023-04-24T07:54:08;3.30;;;3.10;;
16689;SDS011;8458;52.220;9.884;2023-04-24T07:56:34;2.80;;;2.60;;
16689;SDS011;8458;52.220;9.884;2023-04-24T07:59:05;2.40;;;2.20;;
16689;SDS011;8458;52.220;9.884;2023-04-24T08:01:31;4.63;;;4.33;;
16689;SDS011;8458;52.220;9.884;2023-04-24T08:03:58;2.73;;;2.57;;
16689;SDS011;8458;52.220;9.884;2023-04-24T08:06:24;2.40;;;2.30;;
16689;SDS011;8458;52.220;9.884;2023-04-24T08:08:55;4.17;;;3.97;;
16689;SDS011;8458;52.220;9.884;2023-04-24T08:11:21;3.33;;;3.13;;
16689;SDS011;8458;52.220;9.884;2023-04-24T08:13:48;5.43;;;5.00;;
16689;SDS011;8458;52.220;9.884;2023-04-24T08:16:16;5.60;;;5.30;;
16689;SDS011;8458;52.220;9.884;2023-04-24T08:18:42;3.90;;;3.70;;
16689;SDS011;8458;52.220;9.884;2023-04-24T08:21:09;4.60;;;4.20;;
16689;SDS011;8458;52.220;9.884;2023-04-24T08:23:37;4.50;;;4.20;;
16689;SDS011;8458;52.220;9.884;2023-04-24T08:26:04;4.03;;;3.83;;
16689;SDS011;8458;52.220;9.884;2023-04-24T08:28:32;4.13;;;3.87;;
16689;SDS011;8458;52.220;9.884;2023-04-24T08:30:59;4.57;;;4.37;;
16689;SDS011;8458;52.220;9.884;2023-04-24T08:33:27;4.53;;;4.13;;
16689;SDS011;8458;52.220;9.884;2023-04-24T08:35:59;4.60;;;4.40;;
16689;SDS011;8458;52.220;9.884;2023-04-24T08:38:25;4.40;;;4.20;;
16689;SDS011;8458;52.220;9.884;2023-04-24T08:40:52;4.40;;;4.20;;
16689;SDS011;8458;52.220;9.884;2023-04-24T08:43:19;3.90;;;3.70;;
16689;SDS011;8458;52.220;9.884;2023-04-24T08:45:47;4.20;;;4.00;;
16689;SDS011;8458;52.220;9.884;2023-04-24T08:48:14;3.63;;;3.43;;
16689;SDS011;8458;52.220;9.884;2023-04-24T08:50:42;3.37;;;3.17;;
16689;SDS011;8458;52.220;9.884;2023-04-24T08:53:10;3.40;;;3.10;;
16689;SDS011;8458;52.220;9.884;2023-04-24T08:55:36;3.70;;;3.50;;
16689;SDS011;8458;52.220;9.884;2023-04-24T08:58:03;3.70;;;3.40;;
16689;SDS011;8458;52.220;9.884;2023-04-24T09:00:30;3.33;;;3.13;;
16689;SDS011;8458;52.220;9.884;2023-04-24T09:02:57;3.67;;;3.47;;
16689;SDS011;8458;52.220;9.884;2023-04-24T09:05:26;3.70;;;3.50;;
16689;SDS011;8458;52.220;9.884;2023-04-24T09:07:56;3.77;;;3.57;;
16689;SDS011;8458;52.220;9.884;2023-04-24T09:10:23;3.80;;;3.50;;
16689;SDS011;8458;52.220;9.884;2023-04-24T09:12:51;4.10;;;3.90;;
16689;SDS011;8458;52.220;9.884;2023-04-24T09:15:18;3.27;;;3.07;;
16689;SDS011;8458;52.220;9.884;2023-04-24T09:17:45;2.53;;;2.43;;
16689;SDS011;8458;52.220;9.884;2023-04-24T09:20:12;1.70;;;1.60;;
16689;SDS011;8458;52.220;9.884;2023-04-24T09:22:38;1.77;;;1.67;;
16689;SDS011;8458;52.220;9.884;2023-04-24T09:25:07;1.70;;;1.60;;
16689;SDS011;8458;52.220;9.884;2023-04-24T09:27:37;1.60;;;1.50;;
16689;SDS011;8458;52.220;9.884;2023-04-24T09:30:08;2.13;;;1.93;;
16689;SDS011;8458;52.220;9.884;2023-04-24T09:32:35;2.20;;;2.10;;
16689;SDS011;8458;52.220;9.884;2023-04-24T09:35:05;2.00;;;1.90;;
16689;SDS011;8458;52.220;9.884;2023-04-24T09:37:35;2.13;;;1.93;;
16689;SDS011;8458;52.220;9.884;2023-04-24T09:40:10;2.20;;;2.10;;
16689;SDS011;8458;52.220;9.884;2023-04-24T09:42:38;2.00;;;1.90;;
16689;SDS011;8458;52.220;9.884;2023-04-24T09:45:08;1.80;;;1.70;;
16689;SDS011;8458;52.220;9.884;2023-04-24T09:47:36;1.60;;;1.50;;
16689;SDS011;8458;52.220;9.884;2023-04-24T09:50:08;1.80;;;1.70;;
16689;SDS011;8458;52.220;9.884;2023-04-24T09:52:35;1.50;;;1.40;;
16689;SDS011;8458;52.220;9.884;2023-04-24T09:55:11;1.70;;;1.60;;
16689;SDS011;8458;52.220;9.884;2023-04-24T09:57:50;1.17;;;1.00;;
16689;SDS011;8458;52.220;9.884;2023-04-24T10:00:23;1.00;;;1.00;;
16689;SDS011;8458;52.220;9.884;2023-04-24T10:02:55;1.03;;;1.03;;
16689;SDS011;8458;52.220;9.884;2023-04-24T10:05:23;1.93;;;1.27;;
16689;SDS011;8458;52.220;9.884;2023-04-24T10:07:50;1.37;;;1.23;;
16689;SDS011;8458;52.220;9.884;2023-04-24T10:10:18;1.30;;;1.20;;
16689;SDS011;8458;52.220;9.884;2023-04-24T10:12:45;1.20;;;1.10;;
16689;SDS011;8458;52.220;9.884;2023-04-24T10:15:12;1.07;;;1.00;;
16689;SDS011;8458;52.220;9.884;2023-04-24T10:17:40;1.50;;;1.40;;
16689;SDS011;8458;52.220;9.884;2023-04-24T10:20:07;1.47;;;1.37;;
16689;SDS011;8458;52.220;9.884;2023-04-24T10:22:34;1.37;;;1.27;;
16689;SDS011;8458;52.220;9.884;2023-04-24T10:25:03;1.20;;;1.10;;
16689;SDS011;8458;52.220;9.884;2023-04-24T10:27:32;1.23;;;1.23;;
16689;SDS011;8458;52.220;9.884;2023-04-24T10:30:01;1.90;;;1.20;;
16689;SDS011;8458;52.220;9.884;2023-04-24T10:32:28;1.13;;;1.10;;
16689;SDS011;8458;52.220;9.884;2023-04-24T10:34:55;1.30;;;1.20;;
16689;SDS011;8458;52.220;9.884;2023-04-24T10:37:21;1.20;;;1.10;;
16689;SDS011;8458;52.220;9.884;2023-04-24T10:39:49;1.20;;;1.10;;
16689;SDS011;8458;52.220;9.884;2023-04-24T10:42:19;0.90;;;0.90;;
16689;SDS011;8458;52.220;9.884;2023-04-24T10:44:48;1.70;;;1.40;;
16689;SDS011;8458;52.220;9.884;2023-04-24T10:47:15;1.60;;;1.50;;
16689;SDS011;8458;52.220;9.884;2023-04-24T10:49:41;1.30;;;1.30;;
16689;SDS011;8458;52.220;9.884;2023-04-24T10:52:08;1.57;;;1.47;;
16689;SDS011;8458;52.220;9.884;2023-04-24T10:54:36;1.63;;;1.43;;
16689;SDS011;8458;52.220;9.884;2023-04-24T10:57:26;1.40;;;1.20;;
16689;SDS011;8458;52.220;9.884;2023-04-24T11:00:16;1.20;;;1.10;;
16689;SDS011;8458;52.220;9.884;2023-04-24T11:02:46;1.40;;;1.30;;
16689;SDS011;8458;52.220;9.884;2023-04-24T11:05:15;1.40;;;1.30;;
16689;SDS011;8458;52.220;9.884;2023-04-24T11:10:38;1.60;;;1.50;;
16689;SDS011;8458;52.220;9.884;2023-04-24T11:13:06;1.40;;;1.30;;
16689;SDS011;8458;52.220;9.884;2023-04-24T11:15:34;1.43;;;1.30;;
16689;SDS011;8458;52.220;9.884;2023-04-24T11:18:00;1.20;;;1.10;;
16689;SDS011;8458;52.220;9.884;2023-04-24T11:20:27;0.93;;;0.93;;
16689;SDS011;8458;52.220;9.884;2023-04-24T11:22:54;0.70;;;0.60;;
16689;SDS011;8458;52.220;9.884;2023-04-24T11:25:22;0.90;;;0.53;;
16689;SDS011;8458;52.220;9.884;2023-04-24T11:27:50;0.40;;;0.40;;
16689;SDS011;8458;52.220;9.884;2023-04-24T11:30:17;0.43;;;0.43;;
16689;SDS011;8458;52.220;9.884;2023-04-24T11:32:48;1.07;;;0.57;;
16689;SDS011;8458;52.220;9.884;2023-04-24T11:35:17;0.53;;;0.53;;
16689;SDS011;8458;52.220;9.884;2023-04-24T11:37:46;0.60;;;0.47;;
16689;SDS011;8458;52.220;9.884;2023-04-24T11:40:15;1.10;;;0.67;;
16689;SDS011;8458;52.220;9.884;2023-04-24T11:42:43;0.70;;;0.70;;
16689;SDS011;8458;52.220;9.884;2023-04-24T11:45:11;0.77;;;0.50;;
16689;SDS011;8458;52.220;9.884;2023-04-24T11:47:39;0.70;;;0.70;;
16689;SDS011;8458;52.220;9.884;2023-04-24T11:50:08;1.17;;;0.70;;
16689;SDS011;8458;52.220;9.884;2023-04-24T11:52:37;1.47;;;0.80;;
16689;SDS011;8458;52.220;9.884;2023-04-24T11:55:06;0.60;;;0.60;;
16689;SDS011;8458;52.220;9.884;2023-04-24T11:57:34;0.60;;;0.60;;
16689;SDS011;8458;52.220;9.884;2023-04-24T12:00:02;0.90;;;0.63;;
16689;SDS011;8458;52.220;9.884;2023-04-24T12:02:30;0.70;;;0.70;;
16689;SDS011;8458;52.220;9.884;2023-04-24T12:04:56;0.73;;;0.73;;
16689;SDS011;8458;52.220;9.884;2023-04-24T12:07:24;0.60;;;0.60;;
16689;SDS011;8458;52.220;9.884;2023-04-24T12:09:55;1.00;;;0.50;;
16689;SDS011;8458;52.220;9.884;2023-04-24T12:12:24;0.70;;;0.70;;
16689;SDS011;8458;52.220;9.884;2023-04-24T12:14:52;0.50;;;0.50;;
16689;SDS011;8458;52.220;9.884;2023-04-24T12:17:23;0.70;;;0.70;;
16689;SDS011;8458;52.220;9.884;2023-04-24T12:19:51;0.70;;;0.70;;
16689;SDS011;8458;52.220;9.884;2023-04-24T12:22:18;0.70;;;0.70;;
16689;SDS011;8458;52.220;9.884;2023-04-24T12:24:59;0.40;;;0.30;;
16689;SDS011;8458;52.220;9.884;2023-04-24T12:27:29;1.03;;;0.20;;
16689;SDS011;8458;52.220;9.884;2023-04-24T12:29:57;0.20;;;0.20;;
16689;SDS011;8458;52.220;9.884;2023-04-24T12:32:24;0.20;;;0.20;;
16689;SDS011;8458;52.220;9.884;2023-04-24T12:34:52;0.40;;;0.40;;
16689;SDS011;8458;52.220;9.884;2023-04-24T12:37:18;0.40;;;0.40;;
16689;SDS011;8458;52.220;9.884;2023-04-24T12:39:59;0.50;;;0.50;;
16689;SDS011;8458;52.220;9.884;2023-04-24T12:42:27;0.50;;;0.50;;
16689;SDS011;8458;52.220;9.884;2023-04-24T12:44:58;0.40;;;0.40;;
16689;SDS011;8458;52.220;9.884;2023-04-24T12:47:26;0.60;;;0.60;;
16689;SDS011;8458;52.220;9.884;2023-04-24T12:49:53;0.60;;;0.60;;
16689;SDS011;8458;52.220;9.884;2023-04-24T12:52:20;0.83;;;0.40;;
16689;SDS011;8458;52.220;9.884;2023-04-24T12:54:47;1.37;;;0.70;;
16689;SDS011;8458;52.220;9.884;2023-04-24T12:57:15;0.73;;;0.73;;
16689;SDS011;8458;52.220;9.884;2023-04-24T12:59:41;0.50;;;0.50;;
16689;SDS011;8458;52.220;9.884;2023-04-24T13:02:08;0.60;;;0.60;;
16689;SDS011;8458;52.220;9.884;2023-04-24T13:04:35;0.80;;;0.80;;
16689;SDS011;8458;52.220;9.884;2023-04-24T13:07:02;0.60;;;0.60;;
16689;SDS011;8458;52.220;9.884;2023-04-24T13:09:28;0.70;;;0.70;;
16689;SDS011;8458;52.220;9.884;2023-04-24T13:11:56;0.70;;;0.70;;
16689;SDS011;8458;52.220;9.884;2023-04-24T13:14:24;0.67;;;0.57;;
16689;SDS011;8458;52.220;9.884;2023-04-24T13:16:51;0.60;;;0.60;;
16689;SDS011;8458;52.220;9.884;2023-04-24T13:19:17;1.67;;;0.50;;
16689;SDS011;8458;52.220;9.884;2023-04-24T13:21:44;0.37;;;0.37;;
16689;SDS011;8458;52.220;9.884;2023-04-24T13:24:10;1.10;;;0.40;;
16689;SDS011;8458;52.220;9.884;2023-04-24T13:26:38;0.30;;;0.30;;
16689;SDS011;8458;52.220;9.884;2023-04-24T13:29:04;0.30;;;0.30;;
16689;SDS011;8458;52.220;9.884;2023-04-24T13:31:32;0.40;;;0.40;;
16689;SDS011;8458;52.220;9.884;2023-04-24T13:33:58;0.30;;;0.30;;
16689;SDS011;8458;52.220;9.884;2023-04-24T13:36:25;0.57;;;0.30;;
16689;SDS011;8458;52.220;9.884;2023-04-24T13:38:51;0.20;;;0.20;;
16689;SDS011;8458;52.220;9.884;2023-04-24T13:41:18;0.30;;;0.30;;
16689;SDS011;8458;52.220;9.884;2023-04-24T13:43:44;0.63;;;0.40;;
16689;SDS011;8458;52.220;9.884;2023-04-24T13:46:11;0.30;;;0.30;;
16689;SDS011;8458;52.220;9.884;2023-04-24T13:48:39;0.30;;;0.30;;
16689;SDS011;8458;52.220;9.884;2023-04-24T13:51:05;0.30;;;0.30;;
16689;SDS011;8458;52.220;9.884;2023-04-24T13:53:32;1.60;;;0.30;;
16689;SDS011;8458;52.220;9.884;2023-04-24T13:56:01;0.17;;;0.17;;
16689;SDS011;8458;52.220;9.884;2023-04-24T13:58:27;0.20;;;0.20;;
16689;SDS011;8458;52.220;9.884;2023-04-24T14:00:54;0.23;;;0.20;;
16689;SDS011;8458;52.220;9.884;2023-04-24T14:03:21;0.10;;;0.10;;
16689;SDS011;8458;52.220;9.884;2023-04-24T14:05:49;0.20;;;0.20;;
16689;SDS011;8458;52.220;9.884;2023-04-24T14:08:15;0.20;;;0.20;;
16689;SDS011;8458;52.220;9.884;2023-04-24T14:10:42;0.30;;;0.10;;
16689;SDS011;8458;52.220;9.884;2023-04-24T14:13:08;0.10;;;0.10;;
16689;SDS011;8458;52.220;9.884;2023-04-24T14:15:35;0.10;;;0.10;;
16689;SDS011;8458;52.220;9.884;2023-04-24T14:18:03;0.43;;;0.20;;
16689;SDS011;8458;52.220;9.884;2023-04-24T14:20:29;0.30;;;0.30;;
16689;SDS011;8458;52.220;9.884;2023-04-24T14:22:57;0.30;;;0.30;;
16689;SDS011;8458;52.220;9.884;2023-04-24T14:25:24;0.30;;;0.30;;
16689;SDS011;8458;52.220;9.884;2023-04-24T14:27:50;0.20;;;0.20;;
16689;SDS011;8458;52.220;9.884;2023-04-24T14:30:17;0.30;;;0.30;;
16689;SDS011;8458;52.220;9.884;2023-04-24T14:32:44;0.57;;;0.30;;
16689;SDS011;8458;52.220;9.884;2023-04-24T14:35:11;0.50;;;0.30;;
16689;SDS011;8458;52.220;9.884;2023-04-24T14:37:37;0.67;;;0.47;;
16689;SDS011;8458;52.220;9.884;2023-04-24T14:40:08;0.40;;;0.40;;
16689;SDS011;8458;52.220;9.884;2023-04-24T14:42:35;0.50;;;0.50;;
16689;SDS011;8458;52.220;9.884;2023-04-24T14:45:01;0.97;;;0.50;;
16689;SDS011;8458;52.220;9.884;2023-04-24T14:47:28;0.53;;;0.53;;
16689;SDS011;8458;52.220;9.884;2023-04-24T14:49:55;0.50;;;0.50;;
16689;SDS011;8458;52.220;9.884;2023-04-24T14:52:21;0.73;;;0.73;;
16689;SDS011;8458;52.220;9.884;2023-04-24T14:54:48;1.03;;;0.90;;
16689;SDS011;8458;52.220;9.884;2023-04-24T14:57:16;1.97;;;0.90;;
16689;SDS011;8458;52.220;9.884;2023-04-24T14:59:43;1.20;;;0.80;;
16689;SDS011;8458;52.220;9.884;2023-04-24T15:02:10;1.73;;;1.00;;
16689;SDS011;8458;52.220;9.884;2023-04-24T15:04:36;1.77;;;1.03;;
16689;SDS011;8458;52.220;9.884;2023-04-24T15:07:02;1.83;;;0.83;;